Time;durP1;ratioP1;P1;durP2;ratioP2;P2;SDS_P1;SDS_P2;PMS_P1;PMS_P2;Temp;Humidity;BMP_temperature;BMP_pressure;BME280_temperature;BME280_humidity;BME280_pressure;Samples;Min_cycle;Max_cycle;Signal;HPM_P1;HPM_P2
2020/12/12 00:00:27;;;;;;;3.20;1.30;;;;;;;20.32;37.89;97466.56;4996628;28;20029;-78
2020/12/12 00:02:52;;;;;;;2.05;1.30;;;;;;;20.31;37.84;97463.09;5010934;28;20025;-80
2020/12/12 00:05:18;;;;;;;2.22;1.20;;;;;;;20.31;37.78;97467.50;5011969;28;20022;-79
2020/12/12 00:07:43;;;;;;;2.38;1.48;;;;;;;20.30;37.91;97464.06;5009986;28;20030;-80
2020/12/12 00:10:08;;;;;;;2.17;1.38;;;;;;;20.30;37.73;97464.06;4998172;28;20137;-80
2020/12/12 00:12:35;;;;;;;1.80;1.13;;;;;;;20.31;37.63;97471.00;5007141;28;20034;-77
2020/12/12 00:15:02;;;;;;;1.98;1.10;;;;;;;20.30;38.02;97471.94;4990761;28;20527;-79
2020/12/12 00:17:27;;;;;;;2.22;1.15;;;;;;;20.29;38.05;97466.75;4974746;28;20031;-80
2020/12/12 00:19:53;;;;;;;2.58;1.40;;;;;;;20.29;37.83;97482.53;4992080;28;20034;-77
2020/12/12 00:22:18;;;;;;;1.85;1.15;;;;;;;20.28;37.93;97471.19;4990775;28;20054;-81
2020/12/12 00:24:44;;;;;;;2.28;1.15;;;;;;;20.29;37.97;97478.13;4992195;28;20031;-80
2020/12/12 00:27:09;;;;;;;2.13;1.40;;;;;;;20.28;37.83;97483.47;4997006;28;20034;-77
2020/12/12 00:29:35;;;;;;;2.40;1.35;;;;;;;20.28;38.17;97478.22;4991985;28;20069;-77
2020/12/12 00:32:00;;;;;;;2.78;1.30;;;;;;;20.29;37.96;97482.53;4990756;28;20045;-79
2020/12/12 00:34:27;;;;;;;1.52;1.05;;;;;;;20.27;37.94;97482.66;4992023;28;20027;-80
2020/12/12 00:36:54;;;;;;;1.90;1.13;;;;;;;20.27;37.99;97484.41;4974563;28;20515;-80
2020/12/12 00:39:20;;;;;;;2.20;1.10;;;;;;;20.28;38.11;97492.22;4994652;28;20109;-77
2020/12/12 00:41:45;;;;;;;2.63;1.65;;;;;;;20.28;37.92;97486.13;4994187;28;20236;-77
2020/12/12 00:44:11;;;;;;;1.08;0.85;;;;;;;20.27;38.32;97495.81;4994294;28;20046;-78
2020/12/12 00:46:37;;;;;;;1.55;1.15;;;;;;;20.27;38.06;97493.16;4994427;28;20030;-77
2020/12/12 00:49:04;;;;;;;1.92;1.10;;;;;;;20.28;38.13;97491.38;4994299;28;20514;-80
2020/12/12 00:51:30;;;;;;;1.08;0.98;;;;;;;20.28;38.00;97507.16;4995360;28;20038;-78
2020/12/12 00:53:55;;;;;;;1.88;1.17;;;;;;;20.29;37.86;97503.56;4994983;28;20034;-80
2020/12/12 00:56:21;;;;;;;1.85;1.10;;;;;;;20.29;38.02;97504.44;4977796;28;20117;-80
2020/12/12 00:58:46;;;;;;;1.75;1.10;;;;;;;20.29;38.13;97500.94;4978085;28;20053;-78
2020/12/12 01:01:13;;;;;;;1.50;1.00;;;;;;;20.29;37.85;97501.81;5004429;28;20407;-77
2020/12/12 01:03:40;;;;;;;1.05;0.82;;;;;;;20.28;38.17;97505.38;5008532;28;20486;-80
2020/12/12 01:06:10;;;;;;;1.85;1.00;;;;;;;20.26;38.20;97507.25;5014985;28;20103;-79
2020/12/12 01:08:35;;;;;;;2.33;1.40;;;;;;;20.26;38.23;97506.41;5014086;28;20661;-78
2020/12/12 01:11:01;;;;;;;1.98;1.27;;;;;;;20.24;38.32;97509.97;5001475;28;20084;-78
2020/12/12 01:13:26;;;;;;;1.20;0.90;;;;;;;20.27;37.90;97514.22;4994766;28;20056;-77
2020/12/12 01:15:52;;;;;;;2.13;1.33;;;;;;;20.27;37.97;97508.94;4995080;28;20045;-81
2020/12/12 01:18:17;;;;;;;1.55;0.95;;;;;;;20.26;38.00;97512.53;4994922;28;20042;-80
2020/12/12 01:20:42;;;;;;;1.23;0.90;;;;;;;20.26;38.11;97504.63;4994651;28;20035;-74
2020/12/12 01:23:08;;;;;;;1.85;1.20;;;;;;;20.27;38.08;97515.97;4998088;28;20041;-75
2020/12/12 01:25:37;;;;;;;1.20;0.95;;;;;;;20.25;38.10;97510.81;4996435;28;20034;-76
2020/12/12 01:28:04;;;;;;;2.22;1.23;;;;;;;20.26;38.19;97522.19;4995048;28;20113;-77
2020/12/12 01:30:29;;;;;;;10.50;1.40;;;;;;;20.25;38.19;97518.72;4993719;28;20542;-78
2020/12/12 01:32:55;;;;;;;3.67;1.45;;;;;;;20.25;37.82;97526.59;4995032;28;20038;-78
2020/12/12 01:35:20;;;;;;;1.70;1.08;;;;;;;20.27;37.98;97527.34;4994795;28;20042;-79
2020/12/12 01:37:46;;;;;;;1.73;1.17;;;;;;;20.25;38.27;97523.97;4993317;28;20053;-79
2020/12/12 01:40:12;;;;;;;1.52;0.93;;;;;;;20.23;38.14;97526.72;4994264;28;20046;-79
2020/12/12 01:42:38;;;;;;;1.73;1.00;;;;;;;20.24;38.27;97538.91;4988512;28;20085;-80
2020/12/12 01:45:07;;;;;;;1.58;0.93;;;;;;;20.23;38.22;97534.59;4993024;28;20074;-78
2020/12/12 01:47:34;;;;;;;1.25;0.82;;;;;;;20.25;38.44;97534.50;4976985;28;20035;-77
2020/12/12 01:50:00;;;;;;;2.38;1.08;;;;;;;20.22;38.32;97538.19;4991951;28;20038;-77
2020/12/12 01:52:27;;;;;;;1.60;1.25;;;;;;;20.24;38.17;97544.16;4996065;28;20101;-80
2020/12/12 01:54:52;;;;;;;1.23;0.85;;;;;;;20.24;38.17;97541.53;5012568;28;20038;-78
2020/12/12 01:57:20;;;;;;;1.55;1.17;;;;;;;20.24;38.41;97540.69;4999457;28;20026;-75
2020/12/12 01:59:47;;;;;;;1.90;1.00;;;;;;;20.25;38.25;97542.38;4992996;28;20409;-77
2020/12/12 02:02:15;;;;;;;0.90;0.80;;;;;;;20.24;38.01;97540.69;4993033;28;20140;-78
2020/12/12 02:04:46;;;;;;;1.92;1.10;;;;;;;20.24;37.85;97545.94;4993470;28;20109;-78
2020/12/12 02:07:13;;;;;;;1.80;1.17;;;;;;;20.24;38.19;97546.78;4993139;28;20578;-79
2020/12/12 02:09:38;;;;;;;4.18;1.05;;;;;;;20.23;38.27;97549.53;4992526;28;20038;-78
2020/12/12 02:12:04;;;;;;;1.80;0.93;;;;;;;20.23;38.37;97546.88;4992627;28;20384;-79
2020/12/12 02:14:32;;;;;;;1.67;0.93;;;;;;;20.23;38.31;97549.53;4976450;28;20085;-79
2020/12/12 02:16:59;;;;;;;1.20;0.60;;;;;;;20.23;38.62;97546.88;4992962;28;20038;-79
2020/12/12 02:19:25;;;;;;;1.55;1.08;;;;;;;20.24;38.32;97549.41;4992394;28;20204;-81
2020/12/12 02:21:57;;;;;;;1.38;0.77;;;;;;;20.23;38.37;97554.78;5008786;28;20141;-80
2020/12/12 02:24:24;;;;;;;1.52;1.08;;;;;;;20.23;38.34;97552.16;4993584;28;20042;-79
2020/12/12 02:26:51;;;;;;;1.25;0.90;;;;;;;20.24;38.44;97545.94;4992504;28;20458;-80
2020/12/12 02:29:17;;;;;;;1.33;0.95;;;;;;;20.23;38.49;97558.28;4992550;28;20069;-78
2020/12/12 02:31:43;;;;;;;2.10;1.08;;;;;;;20.23;38.40;97557.41;4993634;28;20030;-79
2020/12/12 02:34:09;;;;;;;1.10;0.80;;;;;;;20.23;38.45;97560.03;4992316;28;20085;-80
2020/12/12 02:36:36;;;;;;;1.25;0.80;;;;;;;20.21;38.32;97560.16;4993463;28;20451;-78
2020/12/12 02:39:03;;;;;;;1.08;0.90;;;;;;;20.22;38.39;97559.22;4995576;28;20113;-77
2020/12/12 02:41:29;;;;;;;1.85;0.90;;;;;;;20.22;38.25;97563.59;5011819;28;20029;-78
2020/12/12 02:43:54;;;;;;;1.13;0.80;;;;;;;20.20;38.25;97558.47;5011176;28;20060;-79
2020/12/12 02:46:20;;;;;;;1.65;1.00;;;;;;;20.22;38.42;97569.72;5028121;28;20176;-80
2020/12/12 02:48:47;;;;;;;1.17;0.80;;;;;;;20.22;38.19;97567.09;5002306;28;20038;-77
2020/12/12 02:51:13;;;;;;;0.95;0.73;;;;;;;20.22;38.46;97568.88;4994570;28;20499;-76
2020/12/12 02:53:38;;;;;;;1.48;0.88;;;;;;;20.23;38.43;97578.44;5024398;28;20041;-78
2020/12/12 02:56:03;;;;;;;2.35;1.13;;;;;;;20.22;38.53;97575.00;5031338;28;20038;-80
2020/12/12 02:58:29;;;;;;;1.13;0.80;;;;;;;20.25;38.47;97579.19;5032622;28;20547;-78
2020/12/12 03:00:54;;;;;;;1.58;1.00;;;;;;;20.23;38.38;97579.31;5023992;28;20038;-78
2020/12/12 03:03:20;;;;;;;0.80;0.70;;;;;;;20.22;38.85;97584.66;5012955;28;20037;-76
2020/12/12 03:05:45;;;;;;;0.70;0.70;;;;;;;20.23;38.34;97583.72;5012636;28;20148;-77
2020/12/12 03:08:10;;;;;;;1.42;0.80;;;;;;;20.21;38.52;97594.34;5027256;28;20038;-78
2020/12/12 03:10:37;;;;;;;1.40;0.80;;;;;;;20.24;38.63;97588.03;5011474;28;20041;-79
2020/12/12 03:13:02;;;;;;;1.55;0.80;;;;;;;20.22;38.60;97590.75;5012237;28;20084;-79
2020/12/12 03:15:27;;;;;;;1.02;0.90;;;;;;;20.24;38.72;97588.03;5011137;28;20037;-78
2020/12/12 03:17:53;;;;;;;1.70;0.90;;;;;;;20.23;38.35;97602.13;5010831;28;20104;-79
2020/12/12 03:20:18;;;;;;;1.70;1.17;;;;;;;20.22;38.74;97589.91;5011300;28;20018;-79
2020/12/12 03:22:44;;;;;;;1.00;0.70;;;;;;;20.23;38.53;97594.22;5010918;28;20124;-79
2020/12/12 03:25:11;;;;;;;2.00;1.10;;;;;;;20.21;38.42;97589.06;5011186;28;20038;-81
2020/12/12 03:27:36;;;;;;;0.90;0.80;;;;;;;20.24;38.69;97590.66;5010767;28;20037;-79
2020/12/12 03:30:02;;;;;;;1.80;0.75;;;;;;;20.24;38.46;97595.91;5012192;28;20076;-80
2020/12/12 03:32:28;;;;;;;1.08;0.80;;;;;;;20.23;38.45;97597.72;5011283;28;20026;-79
2020/12/12 03:34:53;;;;;;;1.45;0.80;;;;;;;20.24;38.75;97595.91;4995793;28;20443;-77
2020/12/12 03:37:18;;;;;;;1.17;0.80;;;;;;;20.24;38.63;97588.03;5004745;28;20490;-77
2020/12/12 03:39:45;;;;;;;1.20;0.80;;;;;;;20.25;38.46;97608.13;4993517;28;20033;-78
2020/12/12 03:42:10;;;;;;;1.33;0.70;;;;;;;20.25;38.44;97602.88;5014266;28;20121;-79
2020/12/12 03:44:36;;;;;;;2.42;0.80;;;;;;;20.26;38.49;97603.69;4994667;28;20113;-79
2020/12/12 03:47:01;;;;;;;1.52;0.85;;;;;;;20.27;38.68;97601.00;4992262;28;20530;-79
2020/12/12 03:49:27;;;;;;;0.60;0.60;;;;;;;20.30;38.69;97605.19;4991219;28;20409;-79
2020/12/12 03:51:52;;;;;;;1.10;0.80;;;;;;;20.28;38.48;97602.69;4990855;28;20449;-78
2020/12/12 03:54:18;;;;;;;0.95;0.80;;;;;;;20.29;38.63;97612.25;4991239;28;20038;-78
2020/12/12 03:56:43;;;;;;;1.83;0.80;;;;;;;20.27;38.74;97608.88;5016645;28;20041;-79
2020/12/12 03:59:08;;;;;;;1.17;0.80;;;;;;;20.28;38.75;97607.94;5031647;28;20029;-78
2020/12/12 04:01:34;;;;;;;1.35;0.90;;;;;;;20.28;38.80;97610.56;5019050;28;20034;-81
2020/12/12 04:03:59;;;;;;;0.70;0.63;;;;;;;20.28;38.78;97614.97;4994428;28;20030;-77
2020/12/12 04:06:25;;;;;;;1.40;0.82;;;;;;;20.27;38.97;97621.16;5009984;28;20061;-79
2020/12/12 04:08:50;;;;;;;1.30;0.70;;;;;;;20.28;38.64;97626.34;5010533;28;20121;-79
2020/12/12 04:11:16;;;;;;;1.65;0.85;;;;;;;20.29;39.04;97627.19;5002897;28;20039;-77
2020/12/12 04:13:41;;;;;;;1.15;0.70;;;;;;;20.30;38.60;97618.34;4991507;28;20038;-76
2020/12/12 04:16:07;;;;;;;0.73;0.60;;;;;;;20.30;38.71;97620.97;4995038;28;20045;-80
2020/12/12 04:18:32;;;;;;;1.63;0.88;;;;;;;20.30;38.87;97623.59;4994656;28;20042;-76
2020/12/12 04:20:57;;;;;;;1.08;0.75;;;;;;;20.30;38.62;97628.88;4995889;28;20073;-80
2020/12/12 04:23:23;;;;;;;0.60;0.60;;;;;;;20.29;38.66;97630.66;4994807;28;20073;-76
2020/12/12 04:25:48;;;;;;;1.08;0.75;;;;;;;20.29;38.63;97632.44;4995706;28;20042;-78
2020/12/12 04:28:14;;;;;;;1.00;0.60;;;;;;;20.29;38.77;97637.69;4996074;28;20096;-80
2020/12/12 04:30:39;;;;;;;1.10;0.70;;;;;;;20.30;38.76;97636.75;4994854;28;20038;-78
2020/12/12 04:33:04;;;;;;;1.38;0.70;;;;;;;20.30;38.69;97639.38;4995506;28;20038;-79
2020/12/12 04:35:30;;;;;;;1.15;0.73;;;;;;;20.29;38.99;97642.97;5010782;28;20046;-77
2020/12/12 04:37:55;;;;;;;0.70;0.50;;;;;;;20.28;38.77;97644.75;4994463;28;20043;-78
2020/12/12 04:40:21;;;;;;;0.65;0.65;;;;;;;20.27;38.88;97645.69;5004382;28;20499;-81
2020/12/12 04:42:47;;;;;;;0.80;0.80;;;;;;;20.28;38.65;97646.53;5011103;28;20046;-78
2020/12/12 04:45:12;;;;;;;0.98;0.55;;;;;;;20.26;38.76;97645.78;4995205;28;20415;-79
2020/12/12 04:47:43;;;;;;;0.60;0.55;;;;;;;20.29;38.80;97650.84;4995460;28;20046;-79
2020/12/12 04:50:09;;;;;;;0.90;0.75;;;;;;;20.30;38.74;97645.50;4995350;28;20506;-78
2020/12/12 04:52:39;;;;;;;0.82;0.50;;;;;;;20.28;38.87;97657.03;5010508;28;20081;-78
2020/12/12 04:55:06;;;;;;;0.57;0.55;;;;;;;20.29;38.75;97659.59;4994632;28;20118;-79
2020/12/12 04:57:36;;;;;;;0.85;0.70;;;;;;;20.26;38.62;97657.16;4994400;28;20034;-80
2020/12/12 05:00:08;;;;;;;1.17;0.80;;;;;;;20.31;38.72;97656.84;4994639;28;20496;-80
2020/12/12 05:02:34;;;;;;;0.57;0.50;;;;;;;20.32;38.73;97669.06;4995211;28;20030;-79
2020/12/12 05:04:59;;;;;;;0.85;0.60;;;;;;;20.28;38.67;97668.44;4977891;28;20061;-76
2020/12/12 05:07:25;;;;;;;1.48;0.70;;;;;;;20.26;38.90;97674.69;4993745;28;20054;-78
2020/12/12 05:09:50;;;;;;;1.33;0.70;;;;;;;20.24;38.93;97677.44;4994969;28;20046;-80
2020/12/12 05:12:15;;;;;;;1.20;0.82;;;;;;;20.26;38.84;97678.19;4995280;28;20121;-79
2020/12/12 05:14:48;;;;;;;0.70;0.65;;;;;;;20.23;38.60;97681.88;4993650;28;20038;-78
2020/12/12 05:17:14;;;;;;;1.00;0.75;;;;;;;20.23;38.91;97681.00;4993629;28;20038;-79
2020/12/12 05:19:39;;;;;;;0.65;0.63;;;;;;;20.25;38.72;97684.38;4993776;28;20031;-79
2020/12/12 05:22:04;;;;;;;0.95;0.60;;;;;;;20.25;38.92;97689.66;4995089;28;20403;-80
2020/12/12 05:24:30;;;;;;;1.02;0.73;;;;;;;20.26;38.81;97691.34;5010602;28;20032;-79
2020/12/12 05:27:01;;;;;;;0.68;0.60;;;;;;;20.24;38.82;97694.03;5010089;28;20104;-79
2020/12/12 05:29:26;;;;;;;0.80;0.57;;;;;;;20.24;38.92;97694.03;4994124;28;20038;-78
2020/12/12 05:31:55;;;;;;;0.52;0.52;;;;;;;20.25;38.77;97694.91;4993445;28;20042;-79
2020/12/12 05:34:21;;;;;;;0.80;0.60;;;;;;;20.23;38.73;97691.53;4999481;28;20454;-77
2020/12/12 05:36:46;;;;;;;1.02;0.80;;;;;;;20.24;38.88;97701.94;4994797;28;20113;-78
2020/12/12 05:39:14;;;;;;;0.75;0.60;;;;;;;20.24;38.92;97701.09;4993672;28;20054;-77
2020/12/12 05:41:40;;;;;;;2.05;1.10;;;;;;;20.25;38.88;97700.16;4977362;28;20030;-79
2020/12/12 05:44:07;;;;;;;0.65;0.60;;;;;;;20.24;38.88;97706.34;4994715;28;20031;-78
2020/12/12 05:46:33;;;;;;;0.50;0.50;;;;;;;20.24;38.95;97714.25;4992667;28;20034;-79
2020/12/12 05:49:01;;;;;;;0.57;0.55;;;;;;;20.24;38.90;97706.34;4994685;28;20038;-76
2020/12/12 05:51:28;;;;;;;0.70;0.60;;;;;;;20.23;39.06;97712.56;4994806;28;20034;-79
2020/12/12 05:53:55;;;;;;;0.50;0.50;;;;;;;20.26;38.89;97711.50;4994109;28;20038;-81
2020/12/12 05:56:23;;;;;;;0.60;0.50;;;;;;;20.23;38.93;97710.78;4995771;28;20096;-78
2020/12/12 05:58:53;;;;;;;1.20;0.70;;;;;;;20.24;39.02;97707.19;5015084;28;20038;-80
2020/12/12 06:01:20;;;;;;;1.02;0.70;;;;;;;20.25;38.83;97721.19;5002418;28;20065;-81
2020/12/12 06:04:09;;;;;;;1.17;0.77;;;;;;;20.22;38.87;97729.28;4993147;28;20547;-78
2020/12/12 06:06:45;;;;;;;0.82;0.70;;;;;;;20.22;38.97;97721.38;4993926;28;20550;-75
2020/12/12 06:09:14;;;;;;;1.00;0.73;;;;;;;20.23;39.04;97723.94;4992916;28;20038;-78
2020/12/12 06:11:44;;;;;;;1.23;0.73;;;;;;;20.24;38.96;97733.50;4993069;28;20026;-78
2020/12/12 06:14:10;;;;;;;1.15;0.70;;;;;;;20.24;38.90;97738.75;4992721;28;20502;-76
2020/12/12 06:16:37;;;;;;;0.85;0.60;;;;;;;20.25;38.88;97742.25;5002447;28;20042;-80
2020/12/12 06:19:17;;;;;;;1.17;0.65;;;;;;;20.24;38.99;97743.19;5012123;28;20038;-77
2020/12/12 06:21:45;;;;;;;0.93;0.60;;;;;;;20.24;39.09;97746.63;5013436;28;20491;-80
2020/12/12 06:24:13;;;;;;;0.50;0.50;;;;;;;20.27;38.95;97757.91;5012364;28;20099;-75
2020/12/12 06:26:39;;;;;;;1.42;0.80;;;;;;;20.25;38.98;97752.75;5028833;28;20033;-78
2020/12/12 06:29:06;;;;;;;1.77;0.90;;;;;;;20.27;38.88;97756.16;4994079;28;20041;-78
2020/12/12 06:31:36;;;;;;;1.52;0.80;;;;;;;20.27;38.95;97763.16;4993686;28;20117;-78
2020/12/12 06:34:01;;;;;;;1.08;0.50;;;;;;;20.30;38.95;97769.13;5047424;28;20038;-79
2020/12/12 06:36:30;;;;;;;0.82;0.60;;;;;;;20.28;39.13;97768.34;5032410;28;20029;-80
2020/12/12 06:39:18;;;;;;;0.60;0.50;;;;;;;20.27;39.00;97771.06;5032067;28;20395;-78
2020/12/12 06:41:45;;;;;;;0.80;0.77;;;;;;;20.30;38.95;97777.00;5032877;28;20549;-78
2020/12/12 06:44:11;;;;;;;0.73;0.63;;;;;;;20.27;39.11;97779.81;5013988;28;20042;-79
2020/12/12 06:46:55;;;;;;;0.98;0.73;;;;;;;20.26;38.92;97774.63;4992067;28;20120;-80
2020/12/12 06:49:24;;;;;;;0.73;0.52;;;;;;;20.27;39.28;97784.22;4992398;28;20026;-79
2020/12/12 06:51:50;;;;;;;0.52;0.50;;;;;;;20.28;39.09;97789.41;5002067;28;20060;-81
2020/12/12 06:54:16;;;;;;;0.75;0.70;;;;;;;20.28;39.00;97791.16;5013150;28;20045;-80
2020/12/12 06:56:42;;;;;;;1.63;0.80;;;;;;;20.28;38.87;97797.28;5012067;28;20108;-76
2020/12/12 06:59:35;;;;;;;0.47;0.47;;;;;;;20.27;39.02;97797.38;5012586;28;20414;-80
2020/12/12 07:02:09;;;;;;;1.02;0.70;;;;;;;20.27;39.17;97797.38;5012521;28;20034;-79
2020/12/12 07:04:36;;;;;;;3.17;1.10;;;;;;;20.27;39.15;97805.25;5012917;28;20034;-77
2020/12/12 07:07:07;;;;;;;0.90;0.65;;;;;;;20.28;39.14;97805.19;5011321;28;20037;-80
2020/12/12 07:09:38;;;;;;;1.05;0.75;;;;;;;20.29;39.26;97814.75;5012808;28;20037;-76
2020/12/12 07:12:04;;;;;;;0.70;0.60;;;;;;;20.30;39.05;97811.19;5009556;28;20065;-78
2020/12/12 07:14:30;;;;;;;1.35;0.77;;;;;;;20.28;39.23;97822.72;5010398;28;20124;-79
2020/12/12 07:16:58;;;;;;;0.95;0.70;;;;;;;20.29;39.34;97838.44;5012489;28;20080;-78
2020/12/12 07:19:30;;;;;;;1.67;1.05;;;;;;;20.30;39.12;97840.13;5012466;28;20036;-75
2020/12/12 07:21:56;;;;;;;0.95;0.60;;;;;;;20.30;39.42;97836.63;5006202;28;20431;-77
2020/12/12 07:24:22;;;;;;;3.88;0.95;;;;;;;20.34;39.13;97828.47;5005767;28;20084;-75
2020/12/12 07:26:47;;;;;;;1.55;0.80;;;;;;;20.32;39.25;97838.22;4991361;28;20030;-78
2020/12/12 07:29:13;;;;;;;7.28;1.20;;;;;;;20.34;39.05;97846.88;5002300;28;20490;-78
2020/12/12 07:31:39;;;;;;;5.07;1.50;;;;;;;20.36;39.15;97847.63;5009578;28;20121;-75
2020/12/12 07:34:04;;;;;;;16.88;1.20;;;;;;;20.37;39.34;97851.97;5028543;28;20045;-76
2020/12/12 07:36:32;;;;;;;5.65;0.88;;;;;;;20.37;39.22;97862.47;4975536;28;20034;-75
2020/12/12 07:38:57;;;;;;;4.18;1.20;;;;;;;20.37;39.41;97862.47;4977058;28;20395;-79
2020/12/12 07:41:24;;;;;;;3.65;1.02;;;;;;;20.39;39.29;97857.97;5007969;28;20031;-74
2020/12/12 07:43:54;;;;;;;1.65;0.93;;;;;;;20.40;39.24;97866.72;4991885;28;20034;-79
2020/12/12 07:46:20;;;;;;;2.45;1.20;;;;;;;20.41;39.20;97867.56;5006348;28;20125;-78
2020/12/12 07:48:59;;;;;;;4.70;1.42;;;;;;;20.39;39.22;97867.66;4991461;28;20038;-80
2020/12/12 07:51:25;;;;;;;4.95;1.02;;;;;;;20.43;39.25;97876.22;4991191;28;20038;-79
2020/12/12 07:53:50;;;;;;;9.90;1.70;;;;;;;20.42;39.08;97879.78;4974659;28;20032;-79
2020/12/12 07:56:18;;;;;;;1.58;0.88;;;;;;;20.43;39.32;97878.84;4992255;28;20040;-81
2020/12/12 07:58:54;;;;;;;2.38;1.00;;;;;;;20.42;39.16;97885.03;4974295;28;20033;-80
2020/12/12 08:01:23;;;;;;;3.45;0.93;;;;;;;20.44;39.63;97886.63;5003628;28;20041;-77
2020/12/12 08:03:49;;;;;;;2.25;1.17;;;;;;;20.44;39.51;97881.38;5005924;28;20031;-79
2020/12/12 08:06:17;;;;;;;4.35;0.98;;;;;;;20.45;39.57;97888.34;4992659;28;20113;-80
2020/12/12 08:08:52;;;;;;;3.67;0.90;;;;;;;20.45;39.21;97893.59;4993252;28;20114;-74
2020/12/12 08:11:18;;;;;;;3.92;1.25;;;;;;;20.47;39.42;97901.41;4992999;28;20069;-78
2020/12/12 08:13:43;;;;;;;4.38;1.10;;;;;;;20.47;39.39;97896.16;4996521;28;20046;-77
2020/12/12 08:18:37;;;;;;;3.90;1.02;;;;;;;20.46;39.57;97907.63;5007484;28;20070;-78
2020/12/12 08:21:09;;;;;;;2.47;1.45;;;;;;;20.47;39.33;97912.78;4975346;28;20483;-79
2020/12/12 08:23:36;;;;;;;3.03;1.20;;;;;;;20.48;39.50;97913.59;4974927;28;20076;-78
2020/12/12 08:26:02;;;;;;;4.07;0.90;;;;;;;20.47;39.53;97915.41;4990608;28;20030;-78
2020/12/12 08:28:29;;;;;;;3.47;1.65;;;;;;;20.50;39.45;97919.63;5006758;28;20458;-79
2020/12/12 08:31:08;;;;;;;3.88;1.60;;;;;;;20.49;39.23;97929.31;4992132;28;20054;-77
2020/12/12 08:33:33;;;;;;;7.57;1.65;;;;;;;20.53;39.67;97929.97;5021728;28;20036;-76
2020/12/12 08:36:17;;;;;;;9.95;1.92;;;;;;;20.51;39.76;97935.34;5010722;28;20125;-78
2020/12/12 08:38:51;;;;;;;6.38;1.52;;;;;;;20.53;39.37;97941.38;4994543;28;20100;-76
2020/12/12 08:41:16;;;;;;;3.10;1.13;;;;;;;20.56;39.68;97945.59;5017239;28;20045;-79
2020/12/12 08:43:43;;;;;;;11.57;1.45;;;;;;;20.58;39.69;97954.25;5022927;28;20038;-76
2020/12/12 08:46:13;;;;;;;7.13;1.55;;;;;;;20.59;39.80;97955.94;5025584;28;20087;-76
2020/12/12 08:48:39;;;;;;;4.57;1.77;;;;;;;20.59;39.72;97955.94;5015287;28;20042;-75
2020/12/12 08:51:06;;;;;;;4.90;1.48;;;;;;;20.62;39.96;97954.91;5022358;28;20073;-75
2020/12/12 08:53:37;;;;;;;10.23;1.85;;;;;;;20.62;39.75;97960.16;5017498;28;20517;-76
2020/12/12 08:56:16;;;;;;;4.93;1.92;;;;;;;20.61;39.74;97964.59;5016817;28;20032;-74
2020/12/12 08:58:45;;;;;;;6.63;1.60;;;;;;;20.63;39.71;97967.97;5020170;28;20033;-75
2020/12/12 09:01:15;;;;;;;6.82;2.20;;;;;;;20.66;39.74;97973.06;5023747;28;20122;-75
2020/12/12 09:03:56;;;;;;;4.45;1.77;;;;;;;20.64;39.71;97982.81;5028608;28;20033;-76
2020/12/12 09:06:26;;;;;;;4.13;1.50;;;;;;;20.65;39.75;97983.69;5021259;28;20029;-77
2020/12/12 09:09:11;;;;;;;5.70;1.73;;;;;;;20.63;39.84;97988.19;5018324;28;20122;-75
2020/12/12 09:11:40;;;;;;;8.13;1.90;;;;;;;20.67;39.82;97995.81;5005839;28;20042;-75
2020/12/12 09:14:07;;;;;;;4.32;1.50;;;;;;;20.67;39.91;98000.22;5004285;28;20068;-76
2020/12/12 09:16:33;;;;;;;4.85;1.67;;;;;;;20.67;39.74;98008.97;5000030;28;20066;-76
2020/12/12 09:18:58;;;;;;;4.45;2.08;;;;;;;20.68;39.92;98009.81;5013693;28;20080;-75
2020/12/12 09:21:24;;;;;;;12.45;2.28;;;;;;;20.68;39.88;98013.28;5015398;28;20445;-77
2020/12/12 09:23:50;;;;;;;5.50;2.13;;;;;;;20.68;40.00;98015.91;5032615;28;20030;-75
2020/12/12 09:26:18;;;;;;;16.83;2.53;;;;;;;20.73;39.84;98020.06;5024961;28;20045;-78
2020/12/12 09:28:43;;;;;;;12.50;2.47;;;;;;;20.74;40.13;98019.13;5014578;28;20099;-79
2020/12/12 09:31:09;;;;;;;3.40;1.83;;;;;;;20.75;40.02;98028.72;5014400;28;20776;-81
2020/12/12 09:33:36;;;;;;;10.48;2.83;;;;;;;20.75;39.79;98034.00;5014792;28;20026;-77
2020/12/12 09:36:04;;;;;;;8.32;2.25;;;;;;;20.75;39.89;98037.50;5020366;28;20023;-78
2020/12/12 09:38:30;;;;;;;4.75;1.65;;;;;;;20.73;39.97;98039.34;5024491;28;20044;-78
2020/12/12 09:40:56;;;;;;;14.50;2.05;;;;;;;20.72;40.09;98035.00;5021391;28;20041;-79
2020/12/12 09:43:21;;;;;;;9.02;2.35;;;;;;;20.71;40.11;98033.31;5007013;28;20042;-75
2020/12/12 09:45:47;;;;;;;4.95;2.00;;;;;;;20.72;39.97;98037.63;5004696;28;20041;-77
2020/12/12 09:48:13;;;;;;;4.57;2.40;;;;;;;20.73;40.04;98046.41;5030183;28;20464;-78
2020/12/12 09:50:39;;;;;;;8.38;2.97;;;;;;;20.71;40.13;98048.25;5026220;28;20172;-78
2020/12/12 09:53:07;;;;;;;14.07;3.30;;;;;;;20.73;39.79;98049.03;4976764;28;20065;-78
2020/12/12 09:55:33;;;;;;;10.15;3.63;;;;;;;20.71;39.80;98043.00;4993115;28;20104;-79
2020/12/12 09:58:00;;;;;;;12.75;4.07;;;;;;;20.71;39.73;98048.25;4993106;28;20517;-80
2020/12/12 10:00:27;;;;;;;13.75;4.55;;;;;;;20.73;40.05;98049.03;5003328;28;20053;-79
2020/12/12 10:02:53;;;;;;;13.43;4.63;;;;;;;20.74;39.82;98048.94;4981298;28;20053;-79
2020/12/12 10:05:19;;;;;;;13.35;3.72;;;;;;;20.79;40.02;98061.84;4994280;28;20031;-78
2020/12/12 10:07:44;;;;;;;10.73;4.78;;;;;;;20.78;39.86;98070.72;4995420;28;20034;-78
2020/12/12 10:10:10;;;;;;;11.73;4.57;;;;;;;20.76;39.75;98065.50;5028771;28;20463;-78
2020/12/12 10:12:35;;;;;;;10.90;4.57;;;;;;;20.74;39.62;98074.41;4990412;28;20566;-75
2020/12/12 10:15:03;;;;;;;10.30;4.70;;;;;;;20.72;40.05;98077.13;4994140;28;20414;-80
2020/12/12 10:17:30;;;;;;;22.27;5.82;;;;;;;20.71;40.00;98079.84;4977037;28;20030;-79
2020/12/12 10:19:57;;;;;;;11.18;5.13;;;;;;;20.73;39.79;98078.81;4979920;28;20030;-75
2020/12/12 10:22:24;;;;;;;11.40;5.07;;;;;;;20.72;40.01;98073.66;4997750;28;20038;-77
2020/12/12 10:24:49;;;;;;;15.52;5.72;;;;;;;20.74;39.67;98080.50;5006189;28;20396;-77
2020/12/12 10:27:15;;;;;;;11.10;4.97;;;;;;;20.69;39.85;98088.69;4987153;28;20022;-80
2020/12/12 10:29:42;;;;;;;11.57;4.68;;;;;;;20.68;39.87;98089.59;4976628;28;20038;-79
2020/12/12 10:32:08;;;;;;;12.05;5.38;;;;;;;20.67;40.08;98085.28;4983993;28;20017;-79
2020/12/12 10:34:36;;;;;;;15.15;5.30;;;;;;;20.65;40.01;98087.13;5033470;28;20112;-78
2020/12/12 10:37:02;;;;;;;13.73;5.13;;;;;;;20.66;39.95;98093.28;5031882;28;20120;-79
2020/12/12 10:39:40;;;;;;;15.32;5.88;;;;;;;20.68;39.99;98086.97;5032167;28;20121;-78
2020/12/12 10:42:06;;;;;;;10.77;4.88;;;;;;;20.70;39.87;98102.69;5020907;28;20033;-79
2020/12/12 10:44:31;;;;;;;10.43;4.68;;;;;;;20.71;39.84;98093.84;5020958;28;20059;-79
2020/12/12 10:46:58;;;;;;;11.65;4.68;;;;;;;20.68;39.88;98109.81;5011036;28;20070;-76
2020/12/12 10:49:26;;;;;;;11.07;5.05;;;;;;;20.65;39.89;98102.09;5023179;28;20030;-76
2020/12/12 10:51:53;;;;;;;13.00;5.47;;;;;;;20.67;40.04;98111.59;5020135;28;20056;-78
2020/12/12 10:54:20;;;;;;;10.43;5.35;;;;;;;20.65;40.13;98110.81;5031743;28;20040;-80
2020/12/12 10:56:46;;;;;;;11.15;5.88;;;;;;;20.62;40.17;98108.41;5031493;28;20482;-78
2020/12/12 10:59:13;;;;;;;14.35;6.03;;;;;;;20.63;40.08;98110.06;5024541;28;20499;-75
2020/12/12 11:01:39;;;;;;;12.75;6.07;;;;;;;20.63;40.00;98115.31;5025508;28;20378;-77
2020/12/12 11:04:05;;;;;;;13.20;5.80;;;;;;;20.71;39.86;98111.44;5025165;28;20083;-78
2020/12/12 11:06:32;;;;;;;12.32;5.82;;;;;;;20.71;40.17;98119.31;5030972;28;20087;-79
2020/12/12 11:08:59;;;;;;;15.35;6.47;;;;;;;20.75;39.97;98113.81;5031109;28;20072;-79
2020/12/12 11:11:24;;;;;;;13.15;5.75;;;;;;;20.77;40.05;98117.22;5030915;28;20037;-78
2020/12/12 11:13:49;;;;;;;16.08;5.70;;;;;;;20.80;39.43;98109.16;5030614;28;20508;-80
2020/12/12 11:16:21;;;;;;;14.40;5.93;;;;;;;20.81;39.59;98118.75;5030873;28;20054;-79
2020/12/12 11:18:49;;;;;;;11.00;5.82;;;;;;;20.82;39.85;98122.22;4994740;28;20564;-76
2020/12/12 11:21:24;;;;;;;12.98;5.20;;;;;;;20.79;39.61;98120.63;4990141;28;20041;-78
2020/12/12 11:23:49;;;;;;;11.02;5.70;;;;;;;20.82;40.01;98130.13;4991517;28;20041;-79
2020/12/12 11:26:16;;;;;;;11.30;4.82;;;;;;;20.79;39.87;98130.28;4975401;28;20035;-79
2020/12/12 11:28:44;;;;;;;9.50;5.07;;;;;;;20.75;40.00;98134.00;4975133;28;20062;-78
2020/12/12 11:31:09;;;;;;;13.43;5.40;;;;;;;20.73;40.04;98136.72;4975152;28;20042;-79
2020/12/12 11:33:37;;;;;;;9.68;4.60;;;;;;;20.73;40.10;98141.16;4991318;28;20038;-78